Leoti, Kansas
Current Conditions -  °F | °C
As of 2:55 PM on Tuesday 21 Oct 2014 (Local Time) from K3K3 Reporting Station
Clear Clear  
Wind Chill: 81°   Ceiling: Unl
Heat Index: 81°   Visibility: 10mi
Dew Point: 50°   Wind: 13mph
Humidity: 34%   Direction: 180°S
Pressure: 29.98"   Gusts: 26mph
Location:  38.48°N, 101.36°W
Report Text: K3K3 211955Z AUTO 18011G23KT 10SM CLR 27/10 A2998 RMK AO2
Loading
Personal Weather Stations






























Interactive Weather Map
Tropical Storm Tracking
New forecast layout! Learn more

10-Day Weather Forecast

Advertisements
Track Severe Weather on mobile